BVX355B LIMC-EGLL
Flight info
| Callsign | BVX355B |
|---|---|
| Flight time | 1h 23m |
| Altitude | 40000 |
| Route | AOSTA DCT ORSUD DCT MOLUS DCT IBODI DCT GOTED DCT TRO DCT CLM DCT KOPOR DCT ABNUR DCT DIMAL DCT ALESO |
| Aircraft | A359/H-SDE2E3GHIJ3J4J5LM1ORWXY/LB1D1 |
Departure
| Time | 2026-05-06 12:41 |
|---|---|
| Airport | Milan Malpensa International Airport (LIMC) |
Arrival
| Time | 2026-05-06 14:04 |
|---|---|
| Airport | London Heathrow Airport (EGLL) |
| Time | Latitude | Longitude | Altitude | Speed | Heading |
|---|---|---|---|---|---|
| 2026-05-06 11:52 | 45.62717 | 8.71694 | 726 ft | 0 kts | 339° |
| 2026-05-06 11:54 | 45.62718 | 8.71694 | 723 ft | 0 kts | 339° |
| 2026-05-06 11:58 | 45.62717 | 8.71694 | 723 ft | 0 kts | 339° |
| 2026-05-06 12:12 | 45.62718 | 8.71694 | 722 ft | 0 kts | 339° |
| 2026-05-06 12:16 | 45.62718 | 8.71693 | 722 ft | 0 kts | 339° |
| 2026-05-06 12:18 | 45.62719 | 8.71693 | 722 ft | 0 kts | 339° |
| 2026-05-06 12:20 | 45.62720 | 8.71693 | 722 ft | 0 kts | 339° |
| 2026-05-06 12:21 | 45.62720 | 8.71694 | 722 ft | 0 kts | 339° |
| 2026-05-06 12:21 | 45.62720 | 8.71693 | 722 ft | 0 kts | 339° |
| 2026-05-06 12:22 | 45.62720 | 8.71694 | 722 ft | 0 kts | 339° |
| 2026-05-06 12:22 | 45.62721 | 8.71694 | 722 ft | 0 kts | 339° |
| 2026-05-06 12:25 | 45.62701 | 8.71704 | 723 ft | 4 kts | 346° |
| 2026-05-06 12:25 | 45.62674 | 8.71710 | 724 ft | 4 kts | 0° |
| 2026-05-06 12:26 | 45.62649 | 8.71705 | 724 ft | 4 kts | 27° |
| 2026-05-06 12:26 | 45.62633 | 8.71683 | 722 ft | 2 kts | 78° |
| 2026-05-06 12:26 | 45.62632 | 8.71681 | 723 ft | 0 kts | 79° |
| 2026-05-06 12:30 | 45.62633 | 8.71683 | 722 ft | 1 kts | 79° |
| 2026-05-06 12:30 | 45.62636 | 8.71706 | 723 ft | 4 kts | 79° |
| 2026-05-06 12:30 | 45.62642 | 8.71756 | 722 ft | 6 kts | 79° |
| 2026-05-06 12:30 | 45.62629 | 8.71825 | 724 ft | 9 kts | 134° |
| 2026-05-06 12:31 | 45.62562 | 8.71853 | 725 ft | 15 kts | 171° |
| 2026-05-06 12:31 | 45.62430 | 8.71892 | 725 ft | 21 kts | 167° |
| 2026-05-06 12:31 | 45.62287 | 8.71934 | 725 ft | 21 kts | 169° |
| 2026-05-06 12:31 | 45.62140 | 8.71974 | 723 ft | 22 kts | 169° |
| 2026-05-06 12:32 | 45.61988 | 8.72015 | 726 ft | 22 kts | 169° |
| 2026-05-06 12:32 | 45.61832 | 8.72058 | 725 ft | 23 kts | 169° |
| 2026-05-06 12:32 | 45.61673 | 8.72097 | 723 ft | 23 kts | 182° |
| 2026-05-06 12:32 | 45.61515 | 8.72133 | 728 ft | 23 kts | 163° |
| 2026-05-06 12:33 | 45.61356 | 8.72191 | 725 ft | 24 kts | 168° |
| 2026-05-06 12:33 | 45.61192 | 8.72237 | 724 ft | 24 kts | 168° |
| 2026-05-06 12:33 | 45.61016 | 8.72287 | 718 ft | 23 kts | 169° |
| 2026-05-06 12:33 | 45.60862 | 8.72327 | 716 ft | 22 kts | 169° |
| 2026-05-06 12:34 | 45.60711 | 8.72369 | 715 ft | 23 kts | 163° |
| 2026-05-06 12:34 | 45.60633 | 8.72566 | 701 ft | 24 kts | 96° |
| 2026-05-06 12:34 | 45.60616 | 8.72813 | 702 ft | 26 kts | 96° |
| 2026-05-06 12:34 | 45.60599 | 8.73053 | 692 ft | 22 kts | 96° |
| 2026-05-06 12:35 | 45.60625 | 8.73256 | 701 ft | 21 kts | 48° |
| 2026-05-06 12:35 | 45.60745 | 8.73340 | 693 ft | 20 kts | 23° |
| 2026-05-06 12:35 | 45.60867 | 8.73408 | 715 ft | 17 kts | 11° |
| 2026-05-06 12:35 | 45.60975 | 8.73387 | 715 ft | 16 kts | 349° |
| 2026-05-06 12:36 | 45.61098 | 8.73353 | 723 ft | 16 kts | 349° |
| 2026-05-06 12:36 | 45.61198 | 8.73326 | 726 ft | 15 kts | 349° |
| 2026-05-06 12:36 | 45.61305 | 8.73296 | 725 ft | 17 kts | 349° |
| 2026-05-06 12:36 | 45.61423 | 8.73264 | 725 ft | 18 kts | 349° |
| 2026-05-06 12:37 | 45.61491 | 8.73245 | 727 ft | 8 kts | 349° |
| 2026-05-06 12:37 | 45.61551 | 8.73229 | 725 ft | 9 kts | 349° |
| 2026-05-06 12:37 | 45.61604 | 8.73235 | 725 ft | 7 kts | 36° |
| 2026-05-06 12:37 | 45.61618 | 8.73280 | 727 ft | 0 kts | 75° |
| 2026-05-06 12:38 | 45.61619 | 8.73280 | 727 ft | 0 kts | 75° |
| 2026-05-06 12:38 | 45.61626 | 8.73324 | 724 ft | 7 kts | 77° |
| 2026-05-06 12:39 | 45.61632 | 8.73399 | 726 ft | 10 kts | 89° |
| 2026-05-06 12:39 | 45.61601 | 8.73511 | 728 ft | 13 kts | 119° |
| 2026-05-06 12:39 | 45.61588 | 8.73639 | 723 ft | 14 kts | 86° |
| 2026-05-06 12:39 | 45.61634 | 8.73738 | 724 ft | 12 kts | 5° |
| 2026-05-06 12:40 | 45.61728 | 8.73712 | 726 ft | 21 kts | 347° |
| 2026-05-06 12:40 | 45.62080 | 8.73612 | 723 ft | 89 kts | 349° |
| 2026-05-06 12:40 | 45.62929 | 8.73379 | 722 ft | 157 kts | 349° |
| 2026-05-06 12:40 | 45.64084 | 8.73046 | 1278 ft | 171 kts | 351° |
| 2026-05-06 12:41 | 45.65249 | 8.72774 | 2045 ft | 169 kts | 358° |
| 2026-05-06 12:41 | 45.66458 | 8.72744 | 2448 ft | 180 kts | 1° |
| 2026-05-06 12:41 | 45.67783 | 8.72734 | 2775 ft | 201 kts | 360° |
| 2026-05-06 12:41 | 45.69254 | 8.72686 | 3105 ft | 222 kts | 358° |
| 2026-05-06 12:42 | 45.70815 | 8.73040 | 3499 ft | 234 kts | 27° |
| 2026-05-06 12:42 | 45.72011 | 8.74596 | 4015 ft | 237 kts | 62° |
| 2026-05-06 12:42 | 45.72478 | 8.76817 | 4432 ft | 233 kts | 93° |
| 2026-05-06 12:42 | 45.72078 | 8.79006 | 4813 ft | 228 kts | 124° |
| 2026-05-06 12:43 | 45.70973 | 8.80567 | 4999 ft | 223 kts | 152° |
| 2026-05-06 12:43 | 45.69583 | 8.81575 | 5247 ft | 227 kts | 158° |
| 2026-05-06 12:43 | 45.68031 | 8.82150 | 5688 ft | 234 kts | 177° |
| 2026-05-06 12:43 | 45.66452 | 8.81795 | 6383 ft | 237 kts | 205° |
| 2026-05-06 12:44 | 45.65231 | 8.80201 | 7099 ft | 241 kts | 236° |
| 2026-05-06 12:44 | 45.64674 | 8.77938 | 7903 ft | 244 kts | 255° |
| 2026-05-06 12:44 | 45.64307 | 8.75556 | 8690 ft | 246 kts | 254° |
| 2026-05-06 12:44 | 45.63910 | 8.73197 | 9491 ft | 249 kts | 253° |
| 2026-05-06 12:45 | 45.63521 | 8.70711 | 9953 ft | 265 kts | 256° |
| 2026-05-06 12:45 | 45.63149 | 8.68034 | 10315 ft | 284 kts | 256° |
| 2026-05-06 12:45 | 45.62309 | 8.62306 | 11578 ft | 300 kts | 255° |
| 2026-05-06 12:46 | 45.61860 | 8.59368 | 12280 ft | 308 kts | 255° |
| 2026-05-06 12:46 | 45.61384 | 8.56302 | 12655 ft | 325 kts | 255° |
| 2026-05-06 12:46 | 45.60883 | 8.53097 | 13154 ft | 335 kts | 255° |
| 2026-05-06 12:46 | 45.60370 | 8.49824 | 13833 ft | 340 kts | 255° |
| 2026-05-06 12:47 | 45.59868 | 8.46500 | 14453 ft | 346 kts | 257° |
| 2026-05-06 12:47 | 45.59702 | 8.43049 | 15084 ft | 353 kts | 270° |
| 2026-05-06 12:47 | 45.60094 | 8.39556 | 15742 ft | 360 kts | 279° |
| 2026-05-06 12:47 | 45.60709 | 8.36068 | 16372 ft | 364 kts | 281° |
| 2026-05-06 12:48 | 45.61366 | 8.32557 | 17022 ft | 368 kts | 282° |
| 2026-05-06 12:48 | 45.62037 | 8.29014 | 17696 ft | 371 kts | 282° |
| 2026-05-06 12:48 | 45.62716 | 8.25438 | 18359 ft | 375 kts | 281° |
| 2026-05-06 12:48 | 45.63401 | 8.21836 | 19028 ft | 376 kts | 281° |
| 2026-05-06 12:49 | 45.64118 | 8.18232 | 19750 ft | 378 kts | 284° |
| 2026-05-06 12:49 | 45.65193 | 8.14778 | 20411 ft | 386 kts | 295° |
| 2026-05-06 12:49 | 45.66638 | 8.11516 | 21073 ft | 391 kts | 299° |
| 2026-05-06 12:49 | 45.68261 | 8.08358 | 21709 ft | 395 kts | 302° |
| 2026-05-06 12:50 | 45.69980 | 8.05258 | 22231 ft | 402 kts | 303° |
| 2026-05-06 12:50 | 45.71758 | 8.02135 | 22720 ft | 408 kts | 303° |
| 2026-05-06 12:50 | 45.73559 | 7.98982 | 23366 ft | 410 kts | 302° |
| 2026-05-06 12:50 | 45.75356 | 7.95805 | 23867 ft | 412 kts | 302° |
| 2026-05-06 12:51 | 45.77155 | 7.92589 | 24334 ft | 415 kts | 301° |
| 2026-05-06 12:51 | 45.78960 | 7.89333 | 24768 ft | 420 kts | 301° |
| 2026-05-06 12:51 | 45.80778 | 7.86038 | 25259 ft | 423 kts | 302° |
| 2026-05-06 12:51 | 45.82607 | 7.82709 | 25711 ft | 427 kts | 302° |
| 2026-05-06 12:52 | 45.84450 | 7.79354 | 26227 ft | 430 kts | 302° |
| 2026-05-06 12:52 | 45.86309 | 7.75968 | 26726 ft | 433 kts | 301° |
| 2026-05-06 12:52 | 45.88154 | 7.72602 | 27166 ft | 437 kts | 301° |
| 2026-05-06 12:52 | 45.90062 | 7.69115 | 27631 ft | 440 kts | 301° |
| 2026-05-06 12:53 | 45.91933 | 7.65691 | 28092 ft | 444 kts | 301° |
| 2026-05-06 12:53 | 45.93852 | 7.62180 | 28485 ft | 448 kts | 301° |
| 2026-05-06 12:53 | 45.95780 | 7.58647 | 28920 ft | 451 kts | 301° |
| 2026-05-06 12:53 | 45.97724 | 7.55083 | 29359 ft | 455 kts | 300° |
| 2026-05-06 12:54 | 45.99683 | 7.51492 | 29820 ft | 458 kts | 300° |
| 2026-05-06 12:54 | 46.01653 | 7.47868 | 30218 ft | 461 kts | 300° |
| 2026-05-06 12:54 | 46.03632 | 7.44216 | 30578 ft | 464 kts | 300° |
| 2026-05-06 12:54 | 46.05620 | 7.40544 | 30955 ft | 466 kts | 300° |
| 2026-05-06 12:55 | 46.07614 | 7.36852 | 31285 ft | 469 kts | 300° |
| 2026-05-06 12:55 | 46.09625 | 7.33129 | 31654 ft | 471 kts | 300° |
| 2026-05-06 12:55 | 46.11639 | 7.29404 | 32083 ft | 473 kts | 300° |
| 2026-05-06 12:55 | 46.13664 | 7.25647 | 32427 ft | 475 kts | 300° |
| 2026-05-06 12:56 | 46.15697 | 7.21857 | 32678 ft | 479 kts | 301° |
| 2026-05-06 12:56 | 46.17713 | 7.18099 | 32935 ft | 482 kts | 301° |
| 2026-05-06 12:56 | 46.19768 | 7.14268 | 33206 ft | 483 kts | 301° |
| 2026-05-06 12:56 | 46.21830 | 7.10430 | 33433 ft | 485 kts | 301° |
| 2026-05-06 12:57 | 46.23896 | 7.06568 | 33634 ft | 487 kts | 301° |
| 2026-05-06 12:57 | 46.25974 | 7.02677 | 33846 ft | 489 kts | 301° |
| 2026-05-06 12:57 | 46.28055 | 6.98775 | 34089 ft | 490 kts | 302° |
| 2026-05-06 12:57 | 46.30136 | 6.94871 | 34387 ft | 489 kts | 302° |
| 2026-05-06 12:58 | 46.32214 | 6.90970 | 34681 ft | 489 kts | 302° |
| 2026-05-06 12:58 | 46.34286 | 6.87071 | 34943 ft | 489 kts | 302° |
| 2026-05-06 12:58 | 46.36357 | 6.83167 | 35206 ft | 489 kts | 302° |
| 2026-05-06 12:58 | 46.38425 | 6.79263 | 35497 ft | 489 kts | 302° |
| 2026-05-06 12:59 | 46.40502 | 6.75334 | 35658 ft | 491 kts | 302° |
| 2026-05-06 12:59 | 46.42575 | 6.71408 | 35917 ft | 490 kts | 302° |
| 2026-05-06 12:59 | 46.44752 | 6.67574 | 36225 ft | 494 kts | 308° |
| 2026-05-06 12:59 | 46.47055 | 6.63960 | 36493 ft | 495 kts | 308° |
| 2026-05-06 13:00 | 46.49417 | 6.60335 | 36722 ft | 495 kts | 309° |
| 2026-05-06 13:00 | 46.51796 | 6.56729 | 36950 ft | 495 kts | 309° |
| 2026-05-06 13:00 | 46.54182 | 6.53128 | 37163 ft | 495 kts | 309° |
| 2026-05-06 13:00 | 46.56568 | 6.49527 | 37356 ft | 495 kts | 309° |
| 2026-05-06 13:01 | 46.58956 | 6.45914 | 37597 ft | 494 kts | 310° |
| 2026-05-06 13:01 | 46.61337 | 6.42302 | 37761 ft | 495 kts | 310° |
| 2026-05-06 13:01 | 46.63717 | 6.38683 | 37963 ft | 495 kts | 310° |
| 2026-05-06 13:01 | 46.66095 | 6.35059 | 38174 ft | 495 kts | 310° |
| 2026-05-06 13:02 | 46.68465 | 6.31441 | 38364 ft | 495 kts | 310° |
| 2026-05-06 13:02 | 46.70502 | 6.28327 | 38520 ft | 495 kts | 310° |
| 2026-05-06 13:02 | 46.72864 | 6.24710 | 38680 ft | 495 kts | 310° |
| 2026-05-06 13:02 | 46.75236 | 6.21073 | 38804 ft | 495 kts | 310° |
| 2026-05-06 13:03 | 46.77577 | 6.17480 | 38933 ft | 495 kts | 310° |
| 2026-05-06 13:03 | 46.79951 | 6.13831 | 39060 ft | 494 kts | 310° |
| 2026-05-06 13:03 | 46.82336 | 6.10211 | 39184 ft | 495 kts | 311° |
| 2026-05-06 13:03 | 46.84773 | 6.06665 | 39301 ft | 496 kts | 312° |
| 2026-05-06 13:04 | 46.87244 | 6.03142 | 39427 ft | 496 kts | 312° |
| 2026-05-06 13:04 | 46.89718 | 5.99628 | 39566 ft | 496 kts | 312° |
| 2026-05-06 13:04 | 46.92187 | 5.96106 | 39691 ft | 496 kts | 312° |
| 2026-05-06 13:04 | 46.94646 | 5.92575 | 39797 ft | 495 kts | 312° |
| 2026-05-06 13:05 | 46.97099 | 5.89032 | 39883 ft | 496 kts | 312° |
| 2026-05-06 13:05 | 47.02011 | 5.81888 | 39896 ft | 498 kts | 311° |
| 2026-05-06 13:06 | 47.06921 | 5.74719 | 39899 ft | 497 kts | 312° |
| 2026-05-06 13:06 | 47.11814 | 5.67556 | 39883 ft | 496 kts | 312° |
| 2026-05-06 13:07 | 47.16669 | 5.60432 | 39873 ft | 496 kts | 311° |
| 2026-05-06 13:07 | 47.21549 | 5.53253 | 39880 ft | 496 kts | 311° |
| 2026-05-06 13:08 | 47.26422 | 5.46063 | 39877 ft | 496 kts | 312° |
| 2026-05-06 13:08 | 47.31292 | 5.38858 | 39882 ft | 495 kts | 311° |
| 2026-05-06 13:09 | 47.36153 | 5.31648 | 39875 ft | 495 kts | 312° |
| 2026-05-06 13:09 | 47.41006 | 5.24424 | 39875 ft | 495 kts | 311° |
| 2026-05-06 13:10 | 47.45834 | 5.17219 | 39872 ft | 495 kts | 311° |
| 2026-05-06 13:10 | 47.50681 | 5.09971 | 39869 ft | 496 kts | 311° |
| 2026-05-06 13:11 | 47.55525 | 5.02708 | 39864 ft | 496 kts | 311° |
| 2026-05-06 13:11 | 47.60364 | 4.95429 | 39862 ft | 496 kts | 312° |
| 2026-05-06 13:12 | 47.65196 | 4.88141 | 39862 ft | 495 kts | 311° |
| 2026-05-06 13:12 | 47.70021 | 4.80842 | 39864 ft | 495 kts | 311° |
| 2026-05-06 13:13 | 47.74846 | 4.73522 | 39868 ft | 495 kts | 311° |
| 2026-05-06 13:13 | 47.79661 | 4.66196 | 39872 ft | 495 kts | 311° |
| 2026-05-06 13:14 | 47.83662 | 4.60094 | 39879 ft | 495 kts | 311° |
| 2026-05-06 13:14 | 47.88473 | 4.52737 | 39886 ft | 495 kts | 311° |
| 2026-05-06 13:15 | 47.94056 | 4.44175 | 39875 ft | 495 kts | 311° |
| 2026-05-06 13:15 | 47.98075 | 4.37993 | 39880 ft | 495 kts | 311° |
| 2026-05-06 13:16 | 48.02867 | 4.30602 | 39883 ft | 495 kts | 311° |
| 2026-05-06 13:16 | 48.07660 | 4.23188 | 39891 ft | 495 kts | 311° |
| 2026-05-06 13:17 | 48.12412 | 4.15817 | 39885 ft | 495 kts | 311° |
| 2026-05-06 13:17 | 48.17189 | 4.08387 | 39884 ft | 495 kts | 311° |
| 2026-05-06 13:18 | 48.21966 | 4.00936 | 39880 ft | 495 kts | 311° |
| 2026-05-06 13:18 | 48.26744 | 3.93467 | 39883 ft | 495 kts | 311° |
| 2026-05-06 13:19 | 48.31505 | 3.86001 | 39892 ft | 495 kts | 311° |
| 2026-05-06 13:19 | 48.36258 | 3.78515 | 39887 ft | 495 kts | 311° |
| 2026-05-06 13:20 | 48.41006 | 3.71019 | 39900 ft | 494 kts | 311° |
| 2026-05-06 13:20 | 48.45717 | 3.63563 | 39898 ft | 493 kts | 311° |
| 2026-05-06 13:21 | 48.50445 | 3.56059 | 39899 ft | 493 kts | 311° |
| 2026-05-06 13:21 | 48.55162 | 3.48550 | 39894 ft | 493 kts | 311° |
| 2026-05-06 13:22 | 48.59875 | 3.41025 | 39898 ft | 493 kts | 311° |
| 2026-05-06 13:22 | 48.64582 | 3.33490 | 39888 ft | 492 kts | 311° |
| 2026-05-06 13:23 | 48.69277 | 3.25951 | 39892 ft | 492 kts | 311° |
| 2026-05-06 13:23 | 48.73964 | 3.18402 | 39893 ft | 492 kts | 311° |
| 2026-05-06 13:24 | 48.78653 | 3.10830 | 39898 ft | 492 kts | 311° |
| 2026-05-06 13:24 | 48.83411 | 3.03360 | 39902 ft | 494 kts | 317° |
| 2026-05-06 13:25 | 48.89057 | 2.97389 | 39897 ft | 496 kts | 327° |
| 2026-05-06 13:25 | 48.95024 | 2.92083 | 39902 ft | 497 kts | 328° |
| 2026-05-06 13:26 | 49.01029 | 2.86873 | 39900 ft | 497 kts | 328° |
| 2026-05-06 13:26 | 49.07037 | 2.81632 | 39905 ft | 497 kts | 328° |
| 2026-05-06 13:27 | 49.13035 | 2.76354 | 39905 ft | 498 kts | 328° |
| 2026-05-06 13:27 | 49.19038 | 2.71046 | 39905 ft | 498 kts | 328° |
| 2026-05-06 13:28 | 49.24986 | 2.65772 | 39904 ft | 498 kts | 328° |
| 2026-05-06 13:28 | 49.30969 | 2.60453 | 39897 ft | 496 kts | 328° |
| 2026-05-06 13:29 | 49.36937 | 2.55132 | 39902 ft | 495 kts | 328° |
| 2026-05-06 13:29 | 49.42894 | 2.49806 | 39906 ft | 495 kts | 328° |
| 2026-05-06 13:30 | 49.48849 | 2.44466 | 39908 ft | 495 kts | 328° |
| 2026-05-06 13:30 | 49.54819 | 2.39161 | 39911 ft | 495 kts | 329° |
| 2026-05-06 13:31 | 49.60863 | 2.34078 | 39909 ft | 495 kts | 330° |
| 2026-05-06 13:31 | 49.66916 | 2.29018 | 39908 ft | 495 kts | 329° |
| 2026-05-06 13:32 | 49.72954 | 2.23912 | 39913 ft | 495 kts | 329° |
| 2026-05-06 13:32 | 49.78978 | 2.18776 | 39905 ft | 494 kts | 329° |
| 2026-05-06 13:33 | 49.84953 | 2.13663 | 39912 ft | 494 kts | 329° |
| 2026-05-06 13:33 | 49.90965 | 2.08504 | 39909 ft | 494 kts | 329° |
| 2026-05-06 13:34 | 49.96976 | 2.03333 | 39726 ft | 492 kts | 329° |
| 2026-05-06 13:34 | 49.99964 | 2.00757 | 39491 ft | 490 kts | 329° |
| 2026-05-06 13:34 | 50.02934 | 1.98194 | 39061 ft | 486 kts | 329° |
| 2026-05-06 13:34 | 50.05884 | 1.95644 | 38497 ft | 486 kts | 329° |
| 2026-05-06 13:35 | 50.08845 | 1.93079 | 37791 ft | 485 kts | 329° |
| 2026-05-06 13:35 | 50.11790 | 1.90526 | 37162 ft | 484 kts | 329° |
| 2026-05-06 13:35 | 50.14720 | 1.87959 | 36532 ft | 482 kts | 328° |
| 2026-05-06 13:35 | 50.17467 | 1.84990 | 35918 ft | 479 kts | 319° |
| 2026-05-06 13:36 | 50.19962 | 1.81551 | 35266 ft | 478 kts | 316° |
| 2026-05-06 13:36 | 50.22383 | 1.77998 | 34668 ft | 476 kts | 315° |
| 2026-05-06 13:36 | 50.24752 | 1.74414 | 34208 ft | 472 kts | 315° |
| 2026-05-06 13:36 | 50.27085 | 1.70834 | 33673 ft | 468 kts | 315° |
| 2026-05-06 13:37 | 50.29392 | 1.67278 | 33147 ft | 463 kts | 315° |
| 2026-05-06 13:37 | 50.31644 | 1.63804 | 32678 ft | 458 kts | 315° |
| 2026-05-06 13:37 | 50.33904 | 1.60323 | 32188 ft | 454 kts | 315° |
| 2026-05-06 13:37 | 50.36144 | 1.56876 | 31725 ft | 449 kts | 315° |
| 2026-05-06 13:38 | 50.38361 | 1.53464 | 31266 ft | 445 kts | 315° |
| 2026-05-06 13:38 | 50.40557 | 1.50086 | 30802 ft | 441 kts | 315° |
| 2026-05-06 13:38 | 50.42734 | 1.46731 | 30351 ft | 437 kts | 314° |
| 2026-05-06 13:38 | 50.44891 | 1.43405 | 29867 ft | 433 kts | 314° |
| 2026-05-06 13:39 | 50.47028 | 1.40104 | 29382 ft | 428 kts | 314° |
| 2026-05-06 13:39 | 50.49135 | 1.36846 | 28932 ft | 423 kts | 314° |
| 2026-05-06 13:39 | 50.51188 | 1.33568 | 28494 ft | 417 kts | 311° |
| 2026-05-06 13:39 | 50.53131 | 1.30230 | 28054 ft | 413 kts | 311° |
| 2026-05-06 13:40 | 50.55056 | 1.26905 | 27625 ft | 408 kts | 311° |
| 2026-05-06 13:40 | 50.56959 | 1.23635 | 27200 ft | 404 kts | 311° |
| 2026-05-06 13:40 | 50.58870 | 1.20406 | 26765 ft | 400 kts | 313° |
| 2026-05-06 13:40 | 50.60824 | 1.17321 | 26338 ft | 397 kts | 314° |
| 2026-05-06 13:41 | 50.62780 | 1.14274 | 25890 ft | 394 kts | 313° |
| 2026-05-06 13:41 | 50.64714 | 1.11244 | 25494 ft | 391 kts | 313° |
| 2026-05-06 13:41 | 50.66631 | 1.08227 | 25073 ft | 388 kts | 313° |
| 2026-05-06 13:41 | 50.68532 | 1.05223 | 24650 ft | 386 kts | 313° |
| 2026-05-06 13:42 | 50.70419 | 1.02234 | 24209 ft | 384 kts | 313° |
| 2026-05-06 13:42 | 50.72295 | 0.99257 | 23776 ft | 381 kts | 313° |
| 2026-05-06 13:42 | 50.74160 | 0.96294 | 23326 ft | 379 kts | 313° |
| 2026-05-06 13:42 | 50.76010 | 0.93350 | 22867 ft | 376 kts | 313° |
| 2026-05-06 13:43 | 50.77842 | 0.90431 | 22440 ft | 372 kts | 313° |
| 2026-05-06 13:43 | 50.79654 | 0.87540 | 22016 ft | 368 kts | 313° |
| 2026-05-06 13:43 | 50.81447 | 0.84675 | 21592 ft | 365 kts | 313° |
| 2026-05-06 13:43 | 50.83224 | 0.81833 | 21180 ft | 362 kts | 313° |
| 2026-05-06 13:44 | 50.84989 | 0.79008 | 20765 ft | 359 kts | 313° |
| 2026-05-06 13:44 | 50.86732 | 0.76218 | 20360 ft | 356 kts | 313° |
| 2026-05-06 13:44 | 50.88465 | 0.73441 | 19969 ft | 353 kts | 313° |
| 2026-05-06 13:44 | 50.90183 | 0.70678 | 19555 ft | 351 kts | 313° |
| 2026-05-06 13:45 | 50.91888 | 0.67933 | 19153 ft | 348 kts | 313° |
| 2026-05-06 13:45 | 50.95268 | 0.62483 | 18363 ft | 345 kts | 313° |
| 2026-05-06 13:45 | 50.96944 | 0.59778 | 17937 ft | 343 kts | 313° |
| 2026-05-06 13:46 | 50.98624 | 0.57072 | 17396 ft | 347 kts | 313° |
| 2026-05-06 13:46 | 51.00324 | 0.54319 | 16871 ft | 351 kts | 314° |
| 2026-05-06 13:46 | 51.02033 | 0.51550 | 16355 ft | 351 kts | 314° |
| 2026-05-06 13:46 | 51.03714 | 0.48823 | 15841 ft | 349 kts | 313° |
| 2026-05-06 13:47 | 51.05408 | 0.46074 | 15328 ft | 347 kts | 314° |
| 2026-05-06 13:47 | 51.07114 | 0.43303 | 14806 ft | 345 kts | 314° |
| 2026-05-06 13:47 | 51.08808 | 0.40673 | 14307 ft | 344 kts | 316° |
| 2026-05-06 13:47 | 51.10542 | 0.38062 | 13787 ft | 342 kts | 316° |
| 2026-05-06 13:48 | 51.12268 | 0.35454 | 13240 ft | 340 kts | 316° |
| 2026-05-06 13:48 | 51.13970 | 0.32868 | 12725 ft | 337 kts | 316° |
| 2026-05-06 13:48 | 51.15651 | 0.30307 | 12323 ft | 330 kts | 316° |
| 2026-05-06 13:48 | 51.17282 | 0.27815 | 12089 ft | 320 kts | 316° |
| 2026-05-06 13:49 | 51.18859 | 0.25401 | 11885 ft | 309 kts | 316° |
| 2026-05-06 13:49 | 51.20384 | 0.23071 | 11646 ft | 300 kts | 316° |
| 2026-05-06 13:49 | 51.21873 | 0.20782 | 11304 ft | 296 kts | 316° |
| 2026-05-06 13:49 | 51.23344 | 0.18518 | 10983 ft | 291 kts | 316° |
| 2026-05-06 13:50 | 51.24781 | 0.16306 | 10699 ft | 286 kts | 316° |
| 2026-05-06 13:50 | 51.26205 | 0.14114 | 10306 ft | 284 kts | 316° |
| 2026-05-06 13:50 | 51.27629 | 0.11920 | 9879 ft | 284 kts | 317° |
| 2026-05-06 13:50 | 51.29035 | 0.09750 | 9529 ft | 279 kts | 317° |
| 2026-05-06 13:51 | 51.30425 | 0.07604 | 9072 ft | 278 kts | 317° |
| 2026-05-06 13:51 | 51.31815 | 0.05453 | 8658 ft | 277 kts | 317° |
| 2026-05-06 13:51 | 51.32950 | 0.02997 | 8257 ft | 277 kts | 293° |
| 2026-05-06 13:51 | 51.33331 | 0.00009 | 8001 ft | 274 kts | 277° |
| 2026-05-06 13:52 | 51.33479 | -0.03029 | 7720 ft | 273 kts | 276° |
| 2026-05-06 13:52 | 51.33615 | -0.06043 | 7467 ft | 270 kts | 277° |
| 2026-05-06 13:52 | 51.33758 | -0.09029 | 7214 ft | 268 kts | 277° |
| 2026-05-06 13:52 | 51.33904 | -0.11997 | 7013 ft | 267 kts | 277° |
| 2026-05-06 13:53 | 51.34053 | -0.14963 | 6983 ft | 268 kts | 277° |
| 2026-05-06 13:53 | 51.34203 | -0.17934 | 6986 ft | 268 kts | 277° |
| 2026-05-06 13:53 | 51.34352 | -0.20903 | 6984 ft | 268 kts | 277° |
| 2026-05-06 13:53 | 51.34502 | -0.23877 | 6987 ft | 269 kts | 277° |
| 2026-05-06 13:54 | 51.34652 | -0.26852 | 6988 ft | 268 kts | 277° |
| 2026-05-06 13:54 | 51.34798 | -0.29778 | 6988 ft | 268 kts | 277° |
| 2026-05-06 13:54 | 51.34948 | -0.32790 | 6990 ft | 268 kts | 277° |
| 2026-05-06 13:54 | 51.35093 | -0.35721 | 6991 ft | 268 kts | 277° |
| 2026-05-06 13:55 | 51.35239 | -0.38690 | 6990 ft | 267 kts | 278° |
| 2026-05-06 13:55 | 51.35385 | -0.41658 | 6991 ft | 268 kts | 277° |
| 2026-05-06 13:55 | 51.35530 | -0.44622 | 6993 ft | 268 kts | 277° |
| 2026-05-06 13:55 | 51.35674 | -0.47601 | 6992 ft | 269 kts | 277° |
| 2026-05-06 13:56 | 51.35818 | -0.50579 | 6991 ft | 268 kts | 277° |
| 2026-05-06 13:56 | 51.35962 | -0.53556 | 6992 ft | 269 kts | 277° |
| 2026-05-06 13:56 | 51.36104 | -0.56543 | 6991 ft | 269 kts | 277° |
| 2026-05-06 13:56 | 51.36245 | -0.59528 | 6992 ft | 269 kts | 277° |
| 2026-05-06 13:57 | 51.36382 | -0.62459 | 6986 ft | 257 kts | 277° |
| 2026-05-06 13:57 | 51.36510 | -0.65227 | 6977 ft | 242 kts | 277° |
| 2026-05-06 13:57 | 51.36652 | -0.67866 | 6757 ft | 237 kts | 279° |
| 2026-05-06 13:57 | 51.36854 | -0.70497 | 6368 ft | 238 kts | 283° |
| 2026-05-06 13:58 | 51.37410 | -0.72922 | 6045 ft | 227 kts | 306° |
| 2026-05-06 13:58 | 51.38471 | -0.74695 | 5691 ft | 219 kts | 327° |
| 2026-05-06 13:58 | 51.39758 | -0.75981 | 5258 ft | 218 kts | 331° |
| 2026-05-06 13:58 | 51.41087 | -0.77136 | 4792 ft | 216 kts | 337° |
| 2026-05-06 13:59 | 51.42509 | -0.77814 | 4438 ft | 211 kts | 353° |
| 2026-05-06 13:59 | 51.43952 | -0.77760 | 4113 ft | 205 kts | 10° |
| 2026-05-06 13:59 | 51.45272 | -0.77047 | 3858 ft | 196 kts | 23° |
| 2026-05-06 13:59 | 51.46458 | -0.76073 | 3661 ft | 189 kts | 30° |
| 2026-05-06 14:00 | 51.47292 | -0.74516 | 3427 ft | 185 kts | 63° |
| 2026-05-06 14:00 | 51.47704 | -0.72566 | 3157 ft | 186 kts | 78° |
| 2026-05-06 14:00 | 51.47701 | -0.70514 | 2885 ft | 187 kts | 89° |
| 2026-05-06 14:00 | 51.47653 | -0.68407 | 2603 ft | 186 kts | 86° |
| 2026-05-06 14:01 | 51.47687 | -0.66365 | 2349 ft | 185 kts | 85° |
| 2026-05-06 14:01 | 51.47694 | -0.64303 | 2088 ft | 184 kts | 86° |
| 2026-05-06 14:01 | 51.47696 | -0.62286 | 1841 ft | 177 kts | 86° |
| 2026-05-06 14:01 | 51.47703 | -0.60375 | 1590 ft | 165 kts | 84° |
| 2026-05-06 14:02 | 51.47709 | -0.58608 | 1383 ft | 153 kts | 84° |
| 2026-05-06 14:02 | 51.47717 | -0.56958 | 1182 ft | 144 kts | 85° |
| 2026-05-06 14:02 | 51.47724 | -0.55361 | 980 ft | 142 kts | 85° |
| 2026-05-06 14:02 | 51.47733 | -0.53768 | 794 ft | 144 kts | 85° |
| 2026-05-06 14:03 | 51.47732 | -0.52139 | 604 ft | 147 kts | 84° |
| 2026-05-06 14:03 | 51.47731 | -0.50523 | 394 ft | 142 kts | 85° |
| 2026-05-06 14:03 | 51.47735 | -0.48964 | 211 ft | 140 kts | 85° |
| 2026-05-06 14:03 | 51.47748 | -0.47932 | 106 ft | 140 kts | 87° |
| 2026-05-06 14:04 | 51.47761 | -0.46509 | 98 ft | 101 kts | 89° |
| 2026-05-06 14:04 | 51.47761 | -0.45781 | 93 ft | 33 kts | 89° |
| 2026-05-06 14:04 | 51.47761 | -0.45573 | 95 ft | 14 kts | 91° |
| 2026-05-06 14:04 | 51.47720 | -0.45477 | 95 ft | 11 kts | 155° |
| 2026-05-06 14:05 | 51.47653 | -0.45466 | 92 ft | 8 kts | 180° |
| 2026-05-06 14:05 | 51.47589 | -0.45467 | 92 ft | 7 kts | 180° |
| 2026-05-06 14:05 | 51.47537 | -0.45476 | 97 ft | 8 kts | 202° |
| 2026-05-06 14:05 | 51.47508 | -0.45559 | 96 ft | 10 kts | 259° |
| 2026-05-06 14:06 | 51.47508 | -0.45678 | 96 ft | 10 kts | 273° |
| 2026-05-06 14:06 | 51.47518 | -0.45805 | 96 ft | 11 kts | 273° |
| 2026-05-06 14:06 | 51.47518 | -0.45927 | 94 ft | 12 kts | 270° |
| 2026-05-06 14:06 | 51.47518 | -0.46054 | 92 ft | 11 kts | 270° |
| 2026-05-06 14:07 | 51.47517 | -0.46157 | 92 ft | 8 kts | 269° |
| 2026-05-06 14:07 | 51.47517 | -0.46241 | 92 ft | 7 kts | 270° |
| 2026-05-06 14:07 | 51.47517 | -0.46315 | 92 ft | 7 kts | 270° |
| 2026-05-06 14:07 | 51.47517 | -0.46343 | 94 ft | 0 kts | 270° |
| 2026-05-06 14:08 | 51.47517 | -0.46346 | 94 ft | 2 kts | 270° |
| 2026-05-06 14:08 | 51.47512 | -0.46389 | 92 ft | 5 kts | 245° |
| 2026-05-06 14:08 | 51.47481 | -0.46410 | 96 ft | 6 kts | 182° |
| 2026-05-06 14:08 | 51.47447 | -0.46411 | 95 ft | 1 kts | 180° |
| 2026-05-06 14:09 | 51.47438 | -0.46411 | 92 ft | 1 kts | 180° |
| 2026-05-06 14:09 | 51.47436 | -0.46411 | 96 ft | 0 kts | 180° |
| 2026-05-06 14:09 | 51.47434 | -0.46411 | 96 ft | 0 kts | 180° |